Virtual Norwegian is not affiliated with Norwegian Air Shuttle in any way.
If you are looking for the real "Norwegian", or you wish to book Norwegian flights, please visit Norwegian.com


We use cookies to ensure you get the best experience on our website.   ACCEPT

EPKK - KRK - Krakow (Balice)

General Info Alternate Airport
ICAO: EPKK Elevation: 791 ft ICAO: EPKT
IATA: KRK Country: Poland IATA: KTW
City: Krakow Charts: Log in to view charts City: Katowice
Name: Balice Hub: No Name Pyrzowice
General Info
ICAO: EPKK
IATA: KRK
City: Krakow
Name: Balice
Elevation: 791 ft
Country: Poland
Charts: Log in to view charts
Hub: No
 
Alternate Airport
ICAO: EPKT
IATA: KTW
City: Katowice
Name: Pyrzowice

Weather
221800Z 04003KT 5000 BR NSC M03/M04 Q1030
Weather
221800Z 04003KT 5000 BR NSC M03/M04 Q1030

Runway Info
07
Length ILS/LOC Heading
2550 m N/A 078
25
Length ILS/LOC Course
2550 m 110.30 254

NOTAMs
NOTAMs currently unavailable.
NOTAMs
NOTAMs currently unavailable

Route map
Airport
Airport (hub)